createdAt,value
2016-06-22T00:02:19.803Z,14.5
2016-06-22T00:05:33.642Z,14.5
2016-06-22T00:08:46.869Z,14.5
2016-06-22T00:12:00.732Z,14.5
2016-06-22T00:15:14.518Z,14.5
2016-06-22T00:18:33.385Z,14.4
2016-06-22T00:21:37.488Z,14.4
2016-06-22T00:24:51.338Z,14.4
2016-06-22T00:28:04.966Z,14.4
2016-06-22T00:31:18.820Z,14.3
2016-06-22T00:34:32.430Z,14.3
2016-06-22T00:37:46.054Z,14.3
2016-06-22T00:41:00.082Z,14.3
2016-06-22T00:44:10.751Z,14.2
2016-06-22T00:47:29.298Z,14.2
2016-06-22T00:50:33.228Z,14.2
2016-06-22T00:53:46.287Z,14.2
2016-06-22T00:57:00.028Z,14.1
2016-06-22T01:00:13.835Z,14.1
2016-06-22T01:03:32.665Z,14.1
2016-06-22T01:06:36.713Z,14
2016-06-22T01:09:49.863Z,14
2016-06-22T01:13:03.684Z,13.9
2016-06-22T01:16:17.319Z,13.9
2016-06-22T01:19:31.157Z,13.9
2016-06-22T01:22:44.084Z,13.9
2016-06-22T01:25:56.963Z,13.8
2016-06-22T01:29:10.716Z,13.8
2016-06-22T01:32:29.194Z,13.8
2016-06-22T01:35:33.171Z,13.7
2016-06-22T01:38:46.815Z,13.7
2016-06-22T01:42:00.471Z,13.7
2016-06-22T01:45:14.024Z,13.7
2016-06-22T01:48:32.835Z,13.7
2016-06-22T01:51:36.850Z,13.7
2016-06-22T01:54:50.445Z,13.6
2016-06-22T01:58:04.310Z,13.6
2016-06-22T02:01:18.239Z,13.6
2016-06-22T02:04:32.099Z,13.5
2016-06-22T02:07:45.756Z,13.5
2016-06-22T02:10:59.355Z,13.5
2016-06-22T02:14:12.947Z,13.5
2016-06-22T02:17:31.575Z,13.5
2016-06-22T02:20:35.577Z,13.5
2016-06-22T02:23:47.189Z,13.5
2016-06-22T02:27:02.838Z,13.4
2016-06-22T02:30:13.085Z,13.4
2016-06-22T02:33:28.074Z,13.4
2016-06-22T02:36:31.971Z,13.4
2016-06-22T02:39:42.763Z,13.4
2016-06-22T02:42:56.525Z,13.4
2016-06-22T02:46:10.290Z,13.4
2016-06-22T02:49:28.986Z,13.4
2016-06-22T02:52:32.930Z,13.3
2016-06-22T02:55:44.725Z,13.3
2016-06-22T02:58:58.470Z,13.3
2016-06-22T03:02:11.995Z,13.3
2016-06-22T03:05:30.873Z,13.3
2016-06-22T03:08:34.893Z,13.3
2016-06-22T03:11:48.603Z,13.2
2016-06-22T03:15:02.138Z,13.2
2016-06-22T03:18:15.968Z,13.3
2016-06-22T03:21:34.821Z,13.3
2016-06-22T03:24:38.962Z,13.4
2016-06-22T03:27:52.279Z,13.4
2016-06-22T03:31:03.663Z,13.5
2016-06-22T03:34:17.518Z,13.6
2016-06-22T03:37:30.941Z,13.7
2016-06-22T03:40:44.766Z,13.7
2016-06-22T03:43:58.359Z,13.7
2016-06-22T03:47:06.342Z,13.8
2016-06-22T03:50:27.289Z,13.8
2016-06-22T03:53:31.489Z,13.9
2016-06-22T03:56:45.406Z,13.9
2016-06-22T03:59:55.484Z,14
2016-06-22T04:03:09.409Z,14
2016-06-22T04:06:28.032Z,14.1
2016-06-22T04:09:32.083Z,14.1
2016-06-22T04:12:46.137Z,14.2
2016-06-22T04:16:00.129Z,14.3
2016-06-22T04:19:14.137Z,14.5
2016-06-22T04:22:33.043Z,14.6
2016-06-22T04:25:37.099Z,14.7
2016-06-22T04:28:51.238Z,14.9
2016-06-22T04:32:05.019Z,15
2016-06-22T04:35:18.378Z,15.2
2016-06-22T04:38:36.257Z,15.3
2016-06-22T04:41:46.117Z,15.4
2016-06-22T04:45:00.361Z,15.5
2016-06-22T04:48:11.257Z,15.6
2016-06-22T04:51:30.162Z,15.7
2016-06-22T04:54:34.345Z,15.8
2016-06-22T04:57:48.183Z,15.9
2016-06-22T05:01:02.337Z,16
2016-06-22T05:04:16.261Z,16
2016-06-22T05:07:35.415Z,16.1
2016-06-22T05:10:39.750Z,16.2
2016-06-22T05:13:50.994Z,16.3
2016-06-22T05:17:05.128Z,16.4
2016-06-22T05:20:19.173Z,16.6
2016-06-22T05:23:33.483Z,16.8
2016-06-22T05:26:47.740Z,17.1
2016-06-22T05:30:01.034Z,17.5
2016-06-22T05:33:15.553Z,17.9
2016-06-22T05:36:35.008Z,18.2
2016-06-22T05:39:39.731Z,18.4
2016-06-22T05:42:54.252Z,18.5
2016-06-22T05:46:06.150Z,18.8
2016-06-22T05:49:25.575Z,19.2
2016-06-22T05:52:35.259Z,19.4
2016-06-22T05:55:39.881Z,19.4
2016-06-22T05:58:54.178Z,19.7
2016-06-22T06:02:08.764Z,20.1
2016-06-22T06:05:26.595Z,20.4
2016-06-22T06:08:31.562Z,20.8
2016-06-22T06:11:46.021Z,21.1
2016-06-22T06:15:00.539Z,21.1
2016-06-22T06:18:11.369Z,21.4
2016-06-22T06:21:30.787Z,21.9
2016-06-22T06:24:33.889Z,22
2016-06-22T06:27:50.215Z,22.2
2016-06-22T06:31:04.791Z,22.2
2016-06-22T06:34:18.952Z,22
2016-06-22T06:37:32.997Z,21.7
2016-06-22T06:40:47.540Z,21.3
2016-06-22T06:44:00.689Z,21.1
2016-06-22T06:47:13.036Z,20.8
2016-06-22T06:50:34.331Z,20.8
2016-06-22T06:53:39.008Z,20.8
2016-06-22T06:56:53.342Z,20.7
2016-06-22T07:00:07.846Z,20.7
2016-06-22T07:03:27.159Z,20.7
2016-06-22T07:06:31.772Z,20.9
2016-06-22T07:09:46.363Z,21.1
2016-06-22T07:13:00.971Z,21.5
2016-06-22T07:16:15.377Z,22.1
2016-06-22T07:19:35.329Z,23.4
2016-06-22T07:22:41.161Z,25
2016-06-22T07:25:56.835Z,26.5
2016-06-22T07:29:11.085Z,27.9
2016-06-22T07:32:32.255Z,29
2016-06-22T07:35:39.114Z,29.8
2016-06-22T07:38:55.659Z,30.5
2016-06-22T07:42:11.321Z,31.1
2016-06-22T07:45:30.742Z,31.9
2016-06-22T07:48:37.626Z,32.4
2016-06-22T07:51:54.035Z,32.6
2016-06-22T07:55:10.239Z,32.7
2016-06-22T07:58:31.334Z,33.5
2016-06-22T08:01:37.816Z,33
2016-06-22T08:04:53.602Z,32.4
2016-06-22T08:08:08.884Z,32.7
2016-06-22T08:11:28.466Z,32.5
2016-06-22T08:14:32.580Z,30.8
2016-06-22T08:17:46.780Z,30.3
2016-06-22T08:21:01.179Z,31.1
2016-06-22T08:24:15.989Z,32
2016-06-22T08:27:35.442Z,32.7
2016-06-22T08:30:40.568Z,33.5
2016-06-22T08:33:55.286Z,33.5
2016-06-22T08:37:10.052Z,32.8
2016-06-22T08:40:29.595Z,31.9
2016-06-22T08:43:34.487Z,30.8
2016-06-22T08:46:45.574Z,29.8
2016-06-22T08:49:59.925Z,28.7
2016-06-22T08:53:11.824Z,28.3
2016-06-22T08:56:28.039Z,27.6
2016-06-22T08:59:32.577Z,26.7
2016-06-22T09:02:46.964Z,26.8
2016-06-22T09:06:01.469Z,26.9
2016-06-22T09:09:16.117Z,27
2016-06-22T09:12:30.950Z,27.6
2016-06-22T09:15:45.861Z,28.1
2016-06-22T09:19:00.975Z,28.7
2016-06-22T09:22:13.761Z,29.1
2016-06-22T09:25:30.986Z,29.3
2016-06-22T09:28:46.085Z,29.7
2016-06-22T09:31:59.702Z,29.5
2016-06-22T09:35:14.781Z,28.9
2016-06-22T09:38:34.516Z,28.7
2016-06-22T09:41:39.795Z,29
2016-06-22T09:44:54.386Z,28.8
2016-06-22T09:48:05.587Z,28.9
2016-06-22T09:51:20.038Z,28.9
2016-06-22T09:54:34.156Z,28.7
2016-06-22T09:57:48.512Z,28.4
2016-06-22T10:01:02.736Z,28
2016-06-22T10:04:17.261Z,27.9
2016-06-22T10:07:31.814Z,27.8
2016-06-22T10:10:46.318Z,27.7
2016-06-22T10:13:58.848Z,27.4
2016-06-22T10:17:15.081Z,27.3
2016-06-22T10:20:34.484Z,27.2
2016-06-22T10:23:39.162Z,26.7
2016-06-22T10:26:53.213Z,26.5
2016-06-22T10:30:05.825Z,26.2
2016-06-22T10:33:18.293Z,26
2016-06-22T10:36:34.685Z,25.9
2016-06-22T10:39:48.908Z,25.7
2016-06-22T10:43:03.237Z,25.6
2016-06-22T10:46:17.479Z,25.5
2016-06-22T10:49:31.849Z,25.5
2016-06-22T10:52:46.102Z,25.2
2016-06-22T10:56:00.596Z,24.9
2016-06-22T10:59:14.706Z,24.9
2016-06-22T11:02:33.687Z,24.9
2016-06-22T11:05:38.333Z,25
2016-06-22T11:08:52.415Z,25.2
2016-06-22T11:12:06.729Z,25.2
2016-06-22T11:15:25.857Z,25.1
2016-06-22T11:18:35.358Z,25.1
2016-06-22T11:21:39.731Z,25
2016-06-22T11:24:53.921Z,24.9
2016-06-22T11:28:07.799Z,24.9
2016-06-22T11:31:19.639Z,24.8
2016-06-22T11:34:33.377Z,24.8
2016-06-22T11:37:47.563Z,24.7
2016-06-22T11:41:01.804Z,24.7
2016-06-22T11:44:15.973Z,24.8
2016-06-22T11:47:32.957Z,24.8
2016-06-22T11:50:37.250Z,24.8
2016-06-22T11:53:49.372Z,24.8
2016-06-22T11:57:03.511Z,24.8
2016-06-22T12:00:17.420Z,24.8
2016-06-22T12:03:31.650Z,24.7
2016-06-22T12:06:45.716Z,24.8
2016-06-22T12:09:59.919Z,24.8
2016-06-22T12:13:14.188Z,24.8
2016-06-22T12:16:33.290Z,24.8
2016-06-22T12:19:37.735Z,24.8
2016-06-22T12:22:50.056Z,24.7
2016-06-22T12:26:04.127Z,24.7
2016-06-22T12:29:14.926Z,24.7
2016-06-22T12:32:30.820Z,24.6
2016-06-22T12:35:44.827Z,24.6
2016-06-22T12:38:58.670Z,24.5
2016-06-22T12:42:12.663Z,24.5
2016-06-22T12:45:31.771Z,24.5
2016-06-22T12:48:36.249Z,24.5
2016-06-22T12:51:50.363Z,24.5
2016-06-22T12:55:04.445Z,24.4
2016-06-22T12:58:18.565Z,24.2
2016-06-22T13:01:32.625Z,24.1
2016-06-22T13:04:46.366Z,24.1
2016-06-22T13:08:00.406Z,24.2
2016-06-22T13:11:14.517Z,24.3
2016-06-22T13:14:33.019Z,24.4
2016-06-22T13:17:37.275Z,24.4
2016-06-22T13:20:51.308Z,24.4
2016-06-22T13:24:05.099Z,24.4
2016-06-22T13:27:18.986Z,24.3
2016-06-22T13:30:32.995Z,24.1
2016-06-22T13:33:46.878Z,24
2016-06-22T13:37:00.638Z,23.8
2016-06-22T13:40:14.134Z,23.7
2016-06-22T13:43:32.885Z,23.5
2016-06-22T13:46:36.850Z,23.4
2016-06-22T13:49:50.462Z,23.2
2016-06-22T13:53:04.098Z,23.2
2016-06-22T13:56:17.566Z,23.1
2016-06-22T13:59:31.491Z,23.1
2016-06-22T14:02:44.984Z,23.1
2016-06-22T14:05:58.733Z,23.1
2016-06-22T14:09:12.411Z,23.1
2016-06-22T14:12:31.205Z,23.2
2016-06-22T14:15:35.246Z,23.3
2016-06-22T14:18:48.824Z,23.4
2016-06-22T14:22:02.447Z,23.4
2016-06-22T14:25:16.182Z,23.4
2016-06-22T14:28:34.843Z,23.4
2016-06-22T14:31:38.998Z,23.4
2016-06-22T14:34:52.714Z,23.4
2016-06-22T14:38:06.650Z,23.4
2016-06-22T14:41:20.571Z,23.3
2016-06-22T14:44:33.899Z,23.3
2016-06-22T14:47:47.469Z,23.4
2016-06-22T14:51:01.174Z,23.4
2016-06-22T14:54:14.813Z,23.6
2016-06-22T14:57:33.605Z,23.7
2016-06-22T15:00:37.400Z,23.7
2016-06-22T15:03:51.367Z,23.7
2016-06-22T15:07:05.019Z,23.7
2016-06-22T15:10:19.051Z,23.7
2016-06-22T15:13:33.170Z,23.6
2016-06-22T15:16:46.911Z,23.6
2016-06-22T15:20:00.729Z,23.6
2016-06-22T15:23:14.497Z,23.5
2016-06-22T15:26:33.498Z,23.4
2016-06-22T15:29:37.717Z,23.3
2016-06-22T15:32:51.581Z,23.3
2016-06-22T15:36:05.457Z,23.3
2016-06-22T15:39:15.824Z,23.3
2016-06-22T15:42:34.717Z,23.3
2016-06-22T15:45:38.951Z,23.4
2016-06-22T15:48:52.786Z,23.4
2016-06-22T15:52:06.799Z,23.4
2016-06-22T15:55:20.140Z,23.3
2016-06-22T15:58:33.926Z,23.3
2016-06-22T16:01:47.824Z,23.3
2016-06-22T16:05:01.887Z,23.3
2016-06-22T16:08:15.817Z,23.3
2016-06-22T16:11:32.887Z,23.3
2016-06-22T16:14:36.984Z,23.2
2016-06-22T16:17:50.704Z,23.2
2016-06-22T16:21:08.743Z,23.1
2016-06-22T16:24:18.479Z,23.1
2016-06-22T16:27:32.144Z,23
2016-06-22T16:30:45.994Z,23
2016-06-22T16:33:58.262Z,23
2016-06-22T16:37:12.059Z,23.1
2016-06-22T16:40:30.940Z,23.1
2016-06-22T16:43:35.191Z,23.1
2016-06-22T16:46:47.492Z,23.2
2016-06-22T16:50:01.443Z,23.3
2016-06-22T16:53:15.449Z,23.4
2016-06-22T16:56:34.621Z,23.5
2016-06-22T16:59:38.825Z,23.6
2016-06-22T17:02:52.749Z,23.5
2016-06-22T17:06:06.698Z,23.4
2016-06-22T17:09:20.515Z,23.4
2016-06-22T17:12:34.356Z,23.3
2016-06-22T17:15:48.200Z,23.2
2016-06-22T17:18:59.599Z,23.2
2016-06-22T17:22:13.591Z,23.1
2016-06-22T17:25:32.675Z,23
2016-06-22T17:28:36.673Z,23
2016-06-22T17:31:50.383Z,22.9
2016-06-22T17:35:04.152Z,22.9
2016-06-22T17:38:17.974Z,22.9
2016-06-22T17:41:31.771Z,22.9
2016-06-22T17:44:43.871Z,22.9
2016-06-22T17:47:59.714Z,22.9
2016-06-22T17:51:11.591Z,22.8
2016-06-22T17:54:32.093Z,22.8
2016-06-22T17:57:36.314Z,22.7
2016-06-22T18:00:50.160Z,22.6
2016-06-22T18:04:03.978Z,22.5
2016-06-22T18:07:15.804Z,22.5
2016-06-22T18:10:31.335Z,22.4
2016-06-22T18:13:45.319Z,22.3
2016-06-22T18:16:59.161Z,22.3
2016-06-22T18:20:13.108Z,22.2
2016-06-22T18:23:29.599Z,22.1
2016-06-22T18:26:33.755Z,22.1
2016-06-22T18:29:51.350Z,22.1
2016-06-22T18:33:01.116Z,22
2016-06-22T18:36:14.597Z,22
2016-06-22T18:39:33.561Z,21.9
2016-06-22T18:42:37.655Z,21.9
2016-06-22T18:45:51.495Z,21.9
2016-06-22T18:49:05.411Z,21.9
2016-06-22T18:52:19.386Z,21.8
2016-06-22T18:55:33.208Z,21.8
2016-06-22T18:58:47.023Z,21.7
2016-06-22T19:01:57.506Z,21.7
2016-06-22T19:05:10.625Z,21.7
2016-06-22T19:08:29.582Z,21.6
2016-06-22T19:11:33.564Z,21.6
2016-06-22T19:14:47.315Z,21.5
2016-06-22T19:18:01.152Z,21.5
2016-06-22T19:21:14.825Z,21.4
2016-06-22T19:24:33.817Z,21.4
2016-06-22T19:27:37.937Z,21.4
2016-06-22T19:30:50.201Z,21.3
2016-06-22T19:34:04.259Z,21.3
2016-06-22T19:37:17.701Z,21.2
2016-06-22T19:40:31.782Z,21.2
2016-06-22T19:43:45.635Z,21.1
2016-06-22T19:46:59.791Z,21.1
2016-06-22T19:50:13.592Z,21
2016-06-22T19:53:31.874Z,20.9
2016-06-22T19:56:35.993Z,20.9
2016-06-22T19:59:50.229Z,20.8
2016-06-22T20:03:04.095Z,20.7
2016-06-22T20:06:18.089Z,20.7
2016-06-22T20:09:32.108Z,20.6
2016-06-22T20:12:46.043Z,20.5
2016-06-22T20:15:59.586Z,20.4
2016-06-22T20:19:13.527Z,20.3
2016-06-22T20:22:32.250Z,20.3
2016-06-22T20:25:36.350Z,20.2
2016-06-22T20:28:49.527Z,20.2
2016-06-22T20:32:03.227Z,20.1
2016-06-22T20:35:16.445Z,20
2016-06-22T20:38:35.032Z,20
2016-06-22T20:41:38.975Z,19.9
2016-06-22T20:44:52.540Z,19.9
2016-06-22T20:48:06.338Z,19.8
2016-06-22T20:51:17.991Z,19.7
2016-06-22T20:54:34.586Z,19.6
2016-06-22T20:57:38.288Z,19.6
2016-06-22T21:00:49.068Z,19.5
2016-06-22T21:04:02.253Z,19.5
2016-06-22T21:07:15.782Z,19.4
2016-06-22T21:10:33.728Z,19.3
2016-06-22T21:13:37.494Z,19.3
2016-06-22T21:16:50.961Z,19.2
2016-06-22T21:20:04.624Z,19.1
2016-06-22T21:23:14.423Z,19.1
2016-06-22T21:26:32.670Z,19.1
2016-06-22T21:29:36.476Z,19
2016-06-22T21:32:47.437Z,18.9
2016-06-22T21:35:58.028Z,18.9
2016-06-22T21:39:11.269Z,18.9
2016-06-22T21:42:29.513Z,18.8
2016-06-22T21:45:33.083Z,18.8
2016-06-22T21:48:46.487Z,18.8
2016-06-22T21:52:00.011Z,18.7
2016-06-22T21:55:13.016Z,18.7
2016-06-22T21:58:31.352Z,18.6
2016-06-22T22:01:35.002Z,18.6
2016-06-22T22:04:48.326Z,18.5
2016-06-22T22:08:01.827Z,18.5
2016-06-22T22:11:15.357Z,18.4
2016-06-22T22:14:33.859Z,18.3
2016-06-22T22:17:37.506Z,18.3
2016-06-22T22:20:50.862Z,18.3
2016-06-22T22:24:04.098Z,18.3
2016-06-22T22:27:17.443Z,18.3
2016-06-22T22:30:36.129Z,18.2
2016-06-22T22:33:39.901Z,18.1
2016-06-22T22:36:53.383Z,18.1
2016-06-22T22:40:06.063Z,18
2016-06-22T22:43:17.478Z,18
2016-06-22T22:46:36.003Z,17.9
2016-06-22T22:49:39.710Z,17.9
2016-06-22T22:52:53.109Z,17.9
2016-06-22T22:56:06.559Z,17.8
2016-06-22T22:59:19.913Z,17.7
2016-06-22T23:02:33.134Z,17.7
2016-06-22T23:05:46.525Z,17.7
2016-06-22T23:08:59.834Z,17.6
2016-06-22T23:12:10.972Z,17.6
2016-06-22T23:15:31.559Z,17.5
2016-06-22T23:18:35.234Z,17.5
2016-06-22T23:21:44.382Z,17.5
2016-06-22T23:24:59.855Z,17.4
2016-06-22T23:28:13.518Z,17.4
2016-06-22T23:31:28.924Z,17.4
2016-06-22T23:34:32.569Z,17.3
2016-06-22T23:37:42.992Z,17.3
2016-06-22T23:40:52.424Z,17.3
2016-06-22T23:44:05.939Z,17.2
2016-06-22T23:47:18.648Z,17.2
2016-06-22T23:50:37.011Z,17.1
2016-06-22T23:53:40.672Z,17.1
2016-06-22T23:56:53.316Z,17
